sensor_id;sensor_type;location;lat;lon;timestamp;pressure;altitude;pressure_sealevel;temperature;humidity
78313;BME280;67568;47.438;21.408;2023-02-10T00:02:11;102764.78;;;-3.52;71.10
78313;BME280;67568;47.438;21.408;2023-02-10T00:04:38;102752.75;;;-3.77;71.60
78313;BME280;67568;47.438;21.408;2023-02-10T00:07:04;102752.88;;;-3.79;71.90
78313;BME280;67568;47.438;21.408;2023-02-10T00:09:31;102762.56;;;-3.76;72.38
78313;BME280;67568;47.438;21.408;2023-02-10T00:11:58;102756.31;;;-3.77;71.02
78313;BME280;67568;47.438;21.408;2023-02-10T00:14:26;102764.28;;;-3.75;71.97
78313;BME280;67568;47.438;21.408;2023-02-10T00:16:53;102762.16;;;-3.81;71.72
78313;BME280;67568;47.438;21.408;2023-02-10T00:19:21;102762.63;;;-3.86;72.11
78313;BME280;67568;47.438;21.408;2023-02-10T00:21:48;102763.59;;;-3.77;70.81
78313;BME280;67568;47.438;21.408;2023-02-10T00:24:18;102767.72;;;-3.83;71.12
78313;BME280;67568;47.438;21.408;2023-02-10T00:26:45;102755.41;;;-3.68;70.95
78313;BME280;67568;47.438;21.408;2023-02-10T00:29:13;102761.97;;;-3.70;69.84
78313;BME280;67568;47.438;21.408;2023-02-10T00:31:40;102760.22;;;-3.62;69.56
78313;BME280;67568;47.438;21.408;2023-02-10T00:34:10;102758.22;;;-3.59;69.81
78313;BME280;67568;47.438;21.408;2023-02-10T00:36:38;102759.88;;;-3.76;69.77
78313;BME280;67568;47.438;21.408;2023-02-10T00:39:04;102757.91;;;-3.94;70.21
78313;BME280;67568;47.438;21.408;2023-02-10T00:41:31;102752.38;;;-3.92;71.01
78313;BME280;67568;47.438;21.408;2023-02-10T00:43:58;102763.03;;;-3.81;71.30
78313;BME280;67568;47.438;21.408;2023-02-10T00:46:24;102748.06;;;-3.85;70.87
78313;BME280;67568;47.438;21.408;2023-02-10T00:48:51;102757.50;;;-3.89;70.98
78313;BME280;67568;47.438;21.408;2023-02-10T00:51:18;102754.25;;;-4.02;72.28
78313;BME280;67568;47.438;21.408;2023-02-10T00:53:46;102749.69;;;-4.02;71.78
78313;BME280;67568;47.438;21.408;2023-02-10T00:56:13;102743.28;;;-4.11;71.88
78313;BME280;67568;47.438;21.408;2023-02-10T00:58:40;102742.72;;;-4.14;72.50
78313;BME280;67568;47.438;21.408;2023-02-10T01:01:06;102742.56;;;-4.13;72.18
78313;BME280;67568;47.438;21.408;2023-02-10T01:03:34;102745.28;;;-4.13;72.93
78313;BME280;67568;47.438;21.408;2023-02-10T01:06:04;102740.41;;;-3.99;71.57
78313;BME280;67568;47.438;21.408;2023-02-10T01:08:31;102746.38;;;-3.96;71.61
78313;BME280;67568;47.438;21.408;2023-02-10T01:11:06;102748.66;;;-3.91;72.43
78313;BME280;67568;47.438;21.408;2023-02-10T01:13:34;102751.78;;;-3.96;71.98
78313;BME280;67568;47.438;21.408;2023-02-10T01:16:07;102740.00;;;-4.04;71.36
78313;BME280;67568;47.438;21.408;2023-02-10T01:18:34;102736.31;;;-4.03;71.41
78313;BME280;67568;47.438;21.408;2023-02-10T01:21:09;102736.13;;;-3.92;70.33
78313;BME280;67568;47.438;21.408;2023-02-10T01:23:36;102727.34;;;-4.14;71.45
78313;BME280;67568;47.438;21.408;2023-02-10T01:26:04;102726.91;;;-4.19;71.40
78313;BME280;67568;47.438;21.408;2023-02-10T01:28:30;102720.78;;;-4.11;71.06
78313;BME280;67568;47.438;21.408;2023-02-10T01:30:57;102727.50;;;-4.25;71.75
78313;BME280;67568;47.438;21.408;2023-02-10T01:33:24;102731.53;;;-4.29;72.18
78313;BME280;67568;47.438;21.408;2023-02-10T01:35:51;102721.97;;;-4.33;71.43
78313;BME280;67568;47.438;21.408;2023-02-10T01:38:17;102720.09;;;-4.23;71.47
78313;BME280;67568;47.438;21.408;2023-02-10T01:40:47;102728.47;;;-4.16;71.46
78313;BME280;67568;47.438;21.408;2023-02-10T01:43:15;102729.63;;;-4.19;70.77
78313;BME280;67568;47.438;21.408;2023-02-10T01:45:42;102724.09;;;-4.27;71.12
78313;BME280;67568;47.438;21.408;2023-02-10T01:48:09;102722.56;;;-4.39;71.77
78313;BME280;67568;47.438;21.408;2023-02-10T01:50:50;102739.22;;;-4.34;72.05
78313;BME280;67568;47.438;21.408;2023-02-10T01:53:19;102741.63;;;-4.31;71.57
78313;BME280;67568;47.438;21.408;2023-02-10T01:55:49;102734.81;;;-4.35;71.78
78313;BME280;67568;47.438;21.408;2023-02-10T01:58:19;102736.81;;;-4.37;71.95
78313;BME280;67568;47.438;21.408;2023-02-10T02:00:46;102737.22;;;-4.42;71.61
78313;BME280;67568;47.438;21.408;2023-02-10T02:03:13;102738.88;;;-4.21;71.33
78313;BME280;67568;47.438;21.408;2023-02-10T02:05:42;102734.34;;;-4.21;70.90
78313;BME280;67568;47.438;21.408;2023-02-10T02:13:29;102746.16;;;-4.22;69.71
78313;BME280;67568;47.438;21.408;2023-02-10T02:28:02;102748.03;;;-4.42;70.20
78313;BME280;67568;47.438;21.408;2023-02-10T02:30:45;102745.78;;;-4.56;70.68
78313;BME280;67568;47.438;21.408;2023-02-10T02:33:51;102739.94;;;-4.52;70.62
78313;BME280;67568;47.438;21.408;2023-02-10T02:36:32;102740.50;;;-4.48;70.11
78313;BME280;67568;47.438;21.408;2023-02-10T02:39:02;102739.38;;;-4.45;69.75
78313;BME280;67568;47.438;21.408;2023-02-10T02:41:32;102743.53;;;-4.61;70.00
78313;BME280;67568;47.438;21.408;2023-02-10T02:44:01;102735.69;;;-4.73;70.85
78313;BME280;67568;47.438;21.408;2023-02-10T02:46:38;102744.06;;;-4.67;71.00
78313;BME280;67568;47.438;21.408;2023-02-10T02:49:38;102749.34;;;-4.65;71.70
78313;BME280;67568;47.438;21.408;2023-02-10T02:52:12;102744.94;;;-4.57;72.24
78313;BME280;67568;47.438;21.408;2023-02-10T02:54:45;102751.78;;;-4.72;71.15
78313;BME280;67568;47.438;21.408;2023-02-10T02:57:24;102750.34;;;-4.76;72.87
78313;BME280;67568;47.438;21.408;2023-02-10T03:00:03;102742.38;;;-4.58;71.39
78313;BME280;67568;47.438;21.408;2023-02-10T03:02:32;102745.66;;;-4.74;71.59
78313;BME280;67568;47.438;21.408;2023-02-10T03:05:00;102743.22;;;-4.67;71.19
78313;BME280;67568;47.438;21.408;2023-02-10T03:07:28;102746.94;;;-4.68;70.77
78313;BME280;67568;47.438;21.408;2023-02-10T03:09:54;102746.22;;;-4.61;70.80
78313;BME280;67568;47.438;21.408;2023-02-10T03:12:21;102750.50;;;-4.58;71.08
78313;BME280;67568;47.438;21.408;2023-02-10T03:14:48;102749.91;;;-4.71;71.32
78313;BME280;67568;47.438;21.408;2023-02-10T03:17:15;102753.03;;;-4.76;71.89
78313;BME280;67568;47.438;21.408;2023-02-10T03:19:41;102740.66;;;-4.79;72.00
78313;BME280;67568;47.438;21.408;2023-02-10T03:22:11;102743.66;;;-4.91;72.17
78313;BME280;67568;47.438;21.408;2023-02-10T03:24:38;102748.19;;;-5.02;72.53
78313;BME280;67568;47.438;21.408;2023-02-10T03:27:04;102735.63;;;-5.12;72.54
78313;BME280;67568;47.438;21.408;2023-02-10T03:29:31;102734.78;;;-5.13;72.91
78313;BME280;67568;47.438;21.408;2023-02-10T03:31:58;102729.53;;;-5.14;73.15
78313;BME280;67568;47.438;21.408;2023-02-10T03:34:24;102740.50;;;-5.06;72.68
78313;BME280;67568;47.438;21.408;2023-02-10T03:36:51;102732.38;;;-5.16;73.16
78313;BME280;67568;47.438;21.408;2023-02-10T03:39:18;102739.91;;;-5.10;74.02
78313;BME280;67568;47.438;21.408;2023-02-10T03:41:44;102728.28;;;-5.01;73.01
78313;BME280;67568;47.438;21.408;2023-02-10T03:44:11;102730.84;;;-5.09;72.98
78313;BME280;67568;47.438;21.408;2023-02-10T03:46:38;102726.97;;;-5.16;73.33
78313;BME280;67568;47.438;21.408;2023-02-10T03:49:05;102720.84;;;-5.28;72.79
78313;BME280;67568;47.438;21.408;2023-02-10T03:51:31;102730.69;;;-5.17;73.00
78313;BME280;67568;47.438;21.408;2023-02-10T03:53:59;102724.25;;;-5.16;73.08
78313;BME280;67568;47.438;21.408;2023-02-10T03:56:25;102726.28;;;-5.08;73.79
78313;BME280;67568;47.438;21.408;2023-02-10T03:58:52;102731.69;;;-5.08;72.77
78313;BME280;67568;47.438;21.408;2023-02-10T04:01:20;102732.97;;;-5.03;73.20
78313;BME280;67568;47.438;21.408;2023-02-10T04:03:47;102727.41;;;-5.11;73.06
78313;BME280;67568;47.438;21.408;2023-02-10T04:06:13;102732.81;;;-5.11;72.46
78313;BME280;67568;47.438;21.408;2023-02-10T04:08:40;102727.13;;;-5.17;73.32
78313;BME280;67568;47.438;21.408;2023-02-10T04:11:07;102720.84;;;-5.28;73.31
78313;BME280;67568;47.438;21.408;2023-02-10T04:13:33;102728.81;;;-5.26;73.93
78313;BME280;67568;47.438;21.408;2023-02-10T04:16:15;102731.50;;;-5.26;72.85
78313;BME280;67568;47.438;21.408;2023-02-10T04:18:42;102719.56;;;-5.14;73.04
78313;BME280;67568;47.438;21.408;2023-02-10T04:21:13;102720.88;;;-4.99;71.93
78313;BME280;67568;47.438;21.408;2023-02-10T04:23:40;102726.84;;;-4.85;72.50
78313;BME280;67568;47.438;21.408;2023-02-10T04:26:06;102722.59;;;-4.98;72.04
78313;BME280;67568;47.438;21.408;2023-02-10T04:28:33;102713.47;;;-4.97;72.77
78313;BME280;67568;47.438;21.408;2023-02-10T04:31:00;102717.19;;;-4.88;71.02
78313;BME280;67568;47.438;21.408;2023-02-10T04:33:28;102712.06;;;-5.01;71.23
78313;BME280;67568;47.438;21.408;2023-02-10T04:35:57;102721.44;;;-5.05;70.78
78313;BME280;67568;47.438;21.408;2023-02-10T04:38:24;102712.88;;;-5.20;72.48
78313;BME280;67568;47.438;21.408;2023-02-10T04:40:51;102719.75;;;-5.06;72.44
78313;BME280;67568;47.438;21.408;2023-02-10T04:43:18;102716.03;;;-5.14;71.42
78313;BME280;67568;47.438;21.408;2023-02-10T04:45:45;102728.97;;;-5.08;70.65
78313;BME280;67568;47.438;21.408;2023-02-10T04:48:13;102733.22;;;-5.25;71.93
78313;BME280;67568;47.438;21.408;2023-02-10T04:50:41;102731.50;;;-5.26;71.76
78313;BME280;67568;47.438;21.408;2023-02-10T04:53:08;102715.44;;;-5.28;72.41
78313;BME280;67568;47.438;21.408;2023-02-10T04:55:34;102718.84;;;-5.16;71.69
78313;BME280;67568;47.438;21.408;2023-02-10T04:58:01;102713.41;;;-5.35;72.69
78313;BME280;67568;47.438;21.408;2023-02-10T05:00:27;102715.94;;;-5.53;73.18
78313;BME280;67568;47.438;21.408;2023-02-10T05:02:54;102712.09;;;-5.51;73.02
78313;BME280;67568;47.438;21.408;2023-02-10T05:05:21;102708.84;;;-5.54;73.70
78313;BME280;67568;47.438;21.408;2023-02-10T05:07:48;102705.69;;;-5.69;74.44
78313;BME280;67568;47.438;21.408;2023-02-10T05:10:15;102710.19;;;-5.70;73.63
78313;BME280;67568;47.438;21.408;2023-02-10T05:12:41;102715.66;;;-5.60;74.09
78313;BME280;67568;47.438;21.408;2023-02-10T05:15:08;102712.78;;;-5.58;74.23
78313;BME280;67568;47.438;21.408;2023-02-10T05:17:35;102707.94;;;-5.65;73.91
78313;BME280;67568;47.438;21.408;2023-02-10T05:20:08;102708.00;;;-5.55;74.59
78313;BME280;67568;47.438;21.408;2023-02-10T05:22:36;102708.22;;;-5.58;74.51
78313;BME280;67568;47.438;21.408;2023-02-10T05:25:05;102722.47;;;-5.56;74.59
78313;BME280;67568;47.438;21.408;2023-02-10T05:27:33;102720.38;;;-5.43;73.62
78313;BME280;67568;47.438;21.408;2023-02-10T05:29:59;102728.88;;;-5.47;73.93
78313;BME280;67568;47.438;21.408;2023-02-10T05:32:26;102736.59;;;-5.43;73.86
78313;BME280;67568;47.438;21.408;2023-02-10T05:34:53;102743.50;;;-5.50;73.41
78313;BME280;67568;47.438;21.408;2023-02-10T05:37:19;102752.63;;;-5.51;73.70
78313;BME280;67568;47.438;21.408;2023-02-10T05:39:46;102752.50;;;-5.49;72.84
78313;BME280;67568;47.438;21.408;2023-02-10T05:42:13;102756.63;;;-5.45;73.01
78313;BME280;67568;47.438;21.408;2023-02-10T05:44:40;102764.56;;;-5.44;73.48
78313;BME280;67568;47.438;21.408;2023-02-10T05:47:06;102768.75;;;-5.30;72.76
78313;BME280;67568;47.438;21.408;2023-02-10T05:49:33;102769.47;;;-5.18;71.81
78313;BME280;67568;47.438;21.408;2023-02-10T05:52:00;102775.78;;;-5.08;72.21
78313;BME280;67568;47.438;21.408;2023-02-10T05:54:26;102786.81;;;-5.30;72.91
78313;BME280;67568;47.438;21.408;2023-02-10T05:56:53;102789.94;;;-5.35;72.88
78313;BME280;67568;47.438;21.408;2023-02-10T05:59:20;102787.63;;;-5.39;73.10
78313;BME280;67568;47.438;21.408;2023-02-10T06:01:47;102790.47;;;-5.41;72.63
78313;BME280;67568;47.438;21.408;2023-02-10T06:04:13;102802.94;;;-5.09;71.78
78313;BME280;67568;47.438;21.408;2023-02-10T06:06:40;102811.06;;;-4.90;70.65
78313;BME280;67568;47.438;21.408;2023-02-10T06:09:07;102809.38;;;-4.81;69.98
78313;BME280;67568;47.438;21.408;2023-02-10T06:11:34;102802.44;;;-4.74;70.52
78313;BME280;67568;47.438;21.408;2023-02-10T06:14:03;102805.00;;;-4.63;69.91
78313;BME280;67568;47.438;21.408;2023-02-10T06:16:30;102815.69;;;-4.42;68.91
78313;BME280;67568;47.438;21.408;2023-02-10T06:18:56;102813.69;;;-4.30;68.78
78313;BME280;67568;47.438;21.408;2023-02-10T06:21:23;102823.34;;;-4.08;67.97
78313;BME280;67568;47.438;21.408;2023-02-10T06:23:50;102822.91;;;-3.84;68.66
78313;BME280;67568;47.438;21.408;2023-02-10T06:26:17;102827.56;;;-3.76;68.49
78313;BME280;67568;47.438;21.408;2023-02-10T06:28:44;102825.91;;;-3.97;67.86
78313;BME280;67568;47.438;21.408;2023-02-10T06:31:11;102825.19;;;-3.89;69.10
78313;BME280;67568;47.438;21.408;2023-02-10T06:33:37;102836.31;;;-3.45;68.78
78313;BME280;67568;47.438;21.408;2023-02-10T06:36:05;102834.13;;;-3.32;68.74
78313;BME280;67568;47.438;21.408;2023-02-10T06:38:33;102840.88;;;-3.08;68.48
78313;BME280;67568;47.438;21.408;2023-02-10T06:41:01;102836.19;;;-2.88;67.52
78313;BME280;67568;47.438;21.408;2023-02-10T06:43:28;102834.84;;;-2.57;66.61
78313;BME280;67568;47.438;21.408;2023-02-10T06:45:55;102831.94;;;-2.28;66.19
78313;BME280;67568;47.438;21.408;2023-02-10T06:48:22;102824.03;;;-1.95;64.74
78313;BME280;67568;47.438;21.408;2023-02-10T06:50:48;102806.28;;;-2.07;64.09
78313;BME280;67568;47.438;21.408;2023-02-10T06:53:16;102812.19;;;-1.68;64.00
78313;BME280;67568;47.438;21.408;2023-02-10T06:55:49;102798.53;;;-1.76;62.77
78313;BME280;67568;47.438;21.408;2023-02-10T06:58:20;102802.97;;;-1.41;62.37
78313;BME280;67568;47.438;21.408;2023-02-10T07:00:48;102814.16;;;-1.44;61.78
78313;BME280;67568;47.438;21.408;2023-02-10T07:03:17;102816.19;;;-1.11;61.99
78313;BME280;67568;47.438;21.408;2023-02-10T07:05:44;102816.34;;;-0.62;60.98
78313;BME280;67568;47.438;21.408;2023-02-10T07:08:20;102817.59;;;-0.24;60.59
78313;BME280;67568;47.438;21.408;2023-02-10T07:10:46;102823.69;;;0.35;58.65
78313;BME280;67568;47.438;21.408;2023-02-10T07:13:13;102820.38;;;0.56;58.43
78313;BME280;67568;47.438;21.408;2023-02-10T07:15:40;102830.41;;;0.72;57.85
78313;BME280;67568;47.438;21.408;2023-02-10T07:18:07;102828.78;;;0.47;57.49
78313;BME280;67568;47.438;21.408;2023-02-10T07:20:36;102818.56;;;0.32;58.27
78313;BME280;67568;47.438;21.408;2023-02-10T07:23:03;102834.09;;;0.32;58.92
78313;BME280;67568;47.438;21.408;2023-02-10T07:25:30;102824.97;;;0.64;57.80
78313;BME280;67568;47.438;21.408;2023-02-10T07:28:03;102826.59;;;1.52;56.84
78313;BME280;67568;47.438;21.408;2023-02-10T07:30:30;102825.53;;;1.61;54.30
78313;BME280;67568;47.438;21.408;2023-02-10T07:32:57;102838.25;;;1.46;54.64
78313;BME280;67568;47.438;21.408;2023-02-10T07:35:26;102839.06;;;1.23;55.84
78313;BME280;67568;47.438;21.408;2023-02-10T07:38:01;102835.28;;;1.24;55.25
78313;BME280;67568;47.438;21.408;2023-02-10T07:40:28;102811.88;;;0.99;57.03
78313;BME280;67568;47.438;21.408;2023-02-10T07:42:57;102827.25;;;1.00;57.64
78313;BME280;67568;47.438;21.408;2023-02-10T07:45:45;102844.88;;;0.81;57.70
78313;BME280;67568;47.438;21.408;2023-02-10T07:48:20;102838.72;;;1.26;59.07
78313;BME280;67568;47.438;21.408;2023-02-10T07:50:47;102840.81;;;1.70;56.43
78313;BME280;67568;47.438;21.408;2023-02-10T07:53:20;102850.53;;;3.37;53.13
78313;BME280;67568;47.438;21.408;2023-02-10T07:56:00;102851.56;;;3.73;51.48
78313;BME280;67568;47.438;21.408;2023-02-10T07:58:27;102848.75;;;4.31;50.19
78313;BME280;67568;47.438;21.408;2023-02-10T08:00:56;102829.84;;;4.21;49.48
78313;BME280;67568;47.438;21.408;2023-02-10T08:03:31;102827.63;;;3.81;49.05
78313;BME280;67568;47.438;21.408;2023-02-10T08:06:05;102837.41;;;3.91;49.96
78313;BME280;67568;47.438;21.408;2023-02-10T08:08:43;102837.19;;;3.49;50.20
78313;BME280;67568;47.438;21.408;2023-02-10T08:11:10;102832.00;;;3.76;50.03
78313;BME280;67568;47.438;21.408;2023-02-10T08:13:39;102813.13;;;5.13;47.54
78313;BME280;67568;47.438;21.408;2023-02-10T08:16:06;102823.47;;;5.79;46.27
78313;BME280;67568;47.438;21.408;2023-02-10T08:18:42;102834.03;;;5.82;45.89
78313;BME280;67568;47.438;21.408;2023-02-10T08:21:09;102830.31;;;5.29;46.05
78313;BME280;67568;47.438;21.408;2023-02-10T08:23:37;102834.75;;;4.54;48.36
78313;BME280;67568;47.438;21.408;2023-02-10T08:26:05;102820.81;;;3.99;50.52
78313;BME280;67568;47.438;21.408;2023-02-10T08:28:33;102825.59;;;3.69;50.87
78313;BME280;67568;47.438;21.408;2023-02-10T08:31:02;102828.78;;;3.72;51.65
78313;BME280;67568;47.438;21.408;2023-02-10T08:33:34;102828.91;;;3.43;51.76
78313;BME280;67568;47.438;21.408;2023-02-10T08:36:14;102824.38;;;3.35;52.86
78313;BME280;67568;47.438;21.408;2023-02-10T08:38:42;102803.78;;;3.82;51.97
78313;BME280;67568;47.438;21.408;2023-02-10T08:41:08;102812.44;;;4.35;50.00
78313;BME280;67568;47.438;21.408;2023-02-10T08:47:07;102813.03;;;6.88;45.71
78313;BME280;67568;47.438;21.408;2023-02-10T08:49:40;102812.34;;;7.82;43.73
78313;BME280;67568;47.438;21.408;2023-02-10T08:52:08;102812.19;;;9.44;39.32
78313;BME280;67568;47.438;21.408;2023-02-10T08:54:54;102817.56;;;10.00;38.39
78313;BME280;67568;47.438;21.408;2023-02-10T08:57:20;102824.56;;;12.23;33.32
78313;BME280;67568;47.438;21.408;2023-02-10T08:59:49;102824.53;;;10.56;35.36
78313;BME280;67568;47.438;21.408;2023-02-10T09:02:16;102828.25;;;11.95;34.27
78313;BME280;67568;47.438;21.408;2023-02-10T09:04:46;102814.13;;;10.75;35.00
78313;BME280;67568;47.438;21.408;2023-02-10T09:07:20;102825.56;;;12.17;32.52
78313;BME280;67568;47.438;21.408;2023-02-10T09:09:52;102834.66;;;12.29;31.78
78313;BME280;67568;47.438;21.408;2023-02-10T09:12:24;102836.19;;;10.34;36.43
78313;BME280;67568;47.438;21.408;2023-02-10T09:15:06;102831.91;;;9.36;36.98
78313;BME280;67568;47.438;21.408;2023-02-10T09:17:35;102821.16;;;9.10;38.43
78313;BME280;67568;47.438;21.408;2023-02-10T09:20:02;102829.31;;;9.83;36.25
78313;BME280;67568;47.438;21.408;2023-02-10T09:22:37;102840.19;;;11.38;35.33
78313;BME280;67568;47.438;21.408;2023-02-10T09:25:05;102831.91;;;11.83;32.53
78313;BME280;67568;47.438;21.408;2023-02-10T09:27:41;102839.91;;;11.51;32.45
78313;BME280;67568;47.438;21.408;2023-02-10T09:30:09;102848.78;;;11.36;33.54
78313;BME280;67568;47.438;21.408;2023-02-10T09:32:36;102842.69;;;11.51;34.00
78313;BME280;67568;47.438;21.408;2023-02-10T09:35:03;102862.25;;;12.47;32.69
78313;BME280;67568;47.438;21.408;2023-02-10T09:37:30;102848.66;;;12.68;32.12
78313;BME280;67568;47.438;21.408;2023-02-10T09:39:57;102847.59;;;11.20;33.16
78313;BME280;67568;47.438;21.408;2023-02-10T09:42:35;102861.41;;;12.86;31.62
78313;BME280;67568;47.438;21.408;2023-02-10T09:45:13;102862.53;;;13.67;28.89
78313;BME280;67568;47.438;21.408;2023-02-10T09:50:22;102867.38;;;14.04;27.94
78313;BME280;67568;47.438;21.408;2023-02-10T09:52:56;102857.94;;;13.34;29.09
78313;BME280;67568;47.438;21.408;2023-02-10T09:55:45;102859.34;;;14.40;27.61
78313;BME280;67568;47.438;21.408;2023-02-10T10:01:05;102864.91;;;16.95;23.81
78313;BME280;67568;47.438;21.408;2023-02-10T10:06:35;102857.38;;;13.81;25.99
78313;BME280;67568;47.438;21.408;2023-02-10T10:12:27;102852.59;;;13.55;28.34
78313;BME280;67568;47.438;21.408;2023-02-10T10:14:58;102825.72;;;12.99;28.27
78313;BME280;67568;47.438;21.408;2023-02-10T10:30:18;102827.94;;;13.19;28.39
78313;BME280;67568;47.438;21.408;2023-02-10T10:39:11;102811.94;;;11.98;29.13
78313;BME280;67568;47.438;21.408;2023-02-10T10:41:43;102804.06;;;13.01;28.29
78313;BME280;67568;47.438;21.408;2023-02-10T10:44:12;102801.31;;;12.29;28.75
78313;BME280;67568;47.438;21.408;2023-02-10T10:47:05;102803.25;;;12.45;28.46
78313;BME280;67568;47.438;21.408;2023-02-10T10:49:32;102788.59;;;12.72;27.81
78313;BME280;67568;47.438;21.408;2023-02-10T10:51:58;102786.44;;;12.96;27.25
78313;BME280;67568;47.438;21.408;2023-02-10T10:54:26;102797.47;;;14.91;25.94
78313;BME280;67568;47.438;21.408;2023-02-10T10:57:03;102796.38;;;15.90;24.79
78313;BME280;67568;47.438;21.408;2023-02-10T10:59:35;102785.78;;;18.13;22.15
78313;BME280;67568;47.438;21.408;2023-02-10T11:02:20;102794.38;;;18.85;20.32
78313;BME280;67568;47.438;21.408;2023-02-10T11:05:12;102792.38;;;18.61;20.69
78313;BME280;67568;47.438;21.408;2023-02-10T11:07:46;102785.09;;;18.55;21.51
78313;BME280;67568;47.438;21.408;2023-02-10T11:10:51;102791.47;;;20.28;18.92
78313;BME280;67568;47.438;21.408;2023-02-10T11:13:29;102779.28;;;16.63;21.67
78313;BME280;67568;47.438;21.408;2023-02-10T11:16:03;102778.16;;;14.84;22.84
78313;BME280;67568;47.438;21.408;2023-02-10T11:18:30;102766.22;;;14.99;23.96
78313;BME280;67568;47.438;21.408;2023-02-10T11:23:29;102765.91;;;15.84;22.90
78313;BME280;67568;47.438;21.408;2023-02-10T11:26:15;102769.50;;;14.80;23.14
78313;BME280;67568;47.438;21.408;2023-02-10T11:28:43;102759.72;;;15.61;23.75
78313;BME280;67568;47.438;21.408;2023-02-10T11:31:30;102753.88;;;17.25;20.91
78313;BME280;67568;47.438;21.408;2023-02-10T11:36:46;102765.34;;;16.28;23.68
78313;BME280;67568;47.438;21.408;2023-02-10T11:39:33;102763.41;;;18.37;21.05
78313;BME280;67568;47.438;21.408;2023-02-10T11:42:34;102756.44;;;19.68;19.56
78313;BME280;67568;47.438;21.408;2023-02-10T11:47:35;102754.34;;;19.17;18.94
78313;BME280;67568;47.438;21.408;2023-02-10T11:50:04;102752.19;;;20.50;18.19
78313;BME280;67568;47.438;21.408;2023-02-10T11:52:45;102749.97;;;19.87;18.30
78313;BME280;67568;47.438;21.408;2023-02-10T11:55:12;102748.53;;;16.48;22.25
78313;BME280;67568;47.438;21.408;2023-02-10T12:06:41;102714.81;;;9.66;30.96
78313;BME280;67568;47.438;21.408;2023-02-10T12:09:55;102706.53;;;9.36;33.20
78313;BME280;67568;47.438;21.408;2023-02-10T12:23:04;102692.75;;;7.38;35.58
78313;BME280;67568;47.438;21.408;2023-02-10T12:26:07;102707.88;;;7.29;35.42
78313;BME280;67568;47.438;21.408;2023-02-10T12:28:56;102709.31;;;7.00;36.21
78313;BME280;67568;47.438;21.408;2023-02-10T12:45:55;102677.25;;;5.82;38.59
78313;BME280;67568;47.438;21.408;2023-02-10T12:48:47;102686.78;;;6.00;40.12
78313;BME280;67568;47.438;21.408;2023-02-10T12:54:40;102683.41;;;5.98;38.66
78313;BME280;67568;47.438;21.408;2023-02-10T13:02:54;102662.22;;;5.65;39.45
78313;BME280;67568;47.438;21.408;2023-02-10T13:05:28;102651.88;;;5.54;40.03
78313;BME280;67568;47.438;21.408;2023-02-10T13:08:02;102643.84;;;5.59;38.96
78313;BME280;67568;47.438;21.408;2023-02-10T13:10:46;102660.13;;;5.47;38.97
78313;BME280;67568;47.438;21.408;2023-02-10T13:13:22;102649.31;;;5.46;40.19
78313;BME280;67568;47.438;21.408;2023-02-10T13:15:57;102650.19;;;5.33;40.70
78313;BME280;67568;47.438;21.408;2023-02-10T13:18:34;102662.66;;;5.42;40.27
78313;BME280;67568;47.438;21.408;2023-02-10T13:21:15;102673.84;;;5.40;40.83
78313;BME280;67568;47.438;21.408;2023-02-10T13:23:51;102670.28;;;5.47;41.09
78313;BME280;67568;47.438;21.408;2023-02-10T13:26:37;102680.22;;;5.61;40.57
78313;BME280;67568;47.438;21.408;2023-02-10T13:30:04;102672.16;;;5.33;39.94
78313;BME280;67568;47.438;21.408;2023-02-10T13:35:42;102673.44;;;5.24;40.09
78313;BME280;67568;47.438;21.408;2023-02-10T13:38:16;102679.53;;;5.12;40.47
78313;BME280;67568;47.438;21.408;2023-02-10T13:40:56;102669.59;;;5.11;40.66
78313;BME280;67568;47.438;21.408;2023-02-10T13:43:31;102676.78;;;5.19;40.76
78313;BME280;67568;47.438;21.408;2023-02-10T13:46:01;102683.50;;;4.90;40.94
78313;BME280;67568;47.438;21.408;2023-02-10T13:48:33;102677.81;;;4.98;40.67
78313;BME280;67568;47.438;21.408;2023-02-10T13:51:06;102678.44;;;4.93;41.49
78313;BME280;67568;47.438;21.408;2023-02-10T13:59:03;102660.81;;;4.74;42.08
78313;BME280;67568;47.438;21.408;2023-02-10T14:01:48;102673.94;;;4.79;41.70
78313;BME280;67568;47.438;21.408;2023-02-10T14:06:46;102667.97;;;4.69;42.44
78313;BME280;67568;47.438;21.408;2023-02-10T14:12:00;102669.69;;;4.70;40.51
78313;BME280;67568;47.438;21.408;2023-02-10T14:14:43;102666.25;;;4.55;41.50
78313;BME280;67568;47.438;21.408;2023-02-10T14:19:41;102665.63;;;4.53;41.73
78313;BME280;67568;47.438;21.408;2023-02-10T14:22:32;102680.63;;;4.57;40.67
78313;BME280;67568;47.438;21.408;2023-02-10T14:25:17;102667.47;;;4.39;40.96
78313;BME280;67568;47.438;21.408;2023-02-10T14:27:50;102676.31;;;4.41;42.02
78313;BME280;67568;47.438;21.408;2023-02-10T14:30:38;102684.94;;;4.38;43.06
78313;BME280;67568;47.438;21.408;2023-02-10T14:33:28;102674.13;;;4.29;41.15
78313;BME280;67568;47.438;21.408;2023-02-10T14:35:58;102673.72;;;4.26;41.28
78313;BME280;67568;47.438;21.408;2023-02-10T14:38:31;102677.16;;;4.06;42.04
78313;BME280;67568;47.438;21.408;2023-02-10T14:40:58;102682.25;;;4.10;41.21
78313;BME280;67568;47.438;21.408;2023-02-10T14:43:38;102679.13;;;4.13;41.35
78313;BME280;67568;47.438;21.408;2023-02-10T14:46:06;102669.97;;;3.99;43.03
78313;BME280;67568;47.438;21.408;2023-02-10T14:48:32;102683.47;;;4.00;42.68
78313;BME280;67568;47.438;21.408;2023-02-10T14:51:06;102678.19;;;3.99;43.58
78313;BME280;67568;47.438;21.408;2023-02-10T14:53:35;102664.88;;;3.96;43.30
78313;BME280;67568;47.438;21.408;2023-02-10T14:56:03;102664.50;;;4.05;43.76
78313;BME280;67568;47.438;21.408;2023-02-10T14:58:31;102655.78;;;3.95;43.13
78313;BME280;67568;47.438;21.408;2023-02-10T15:03:53;102663.78;;;3.90;44.07
78313;BME280;67568;47.438;21.408;2023-02-10T15:06:21;102657.16;;;3.78;43.20